Time;durP1;ratioP1;P1;durP2;ratioP2;P2;SDS_P1;SDS_P2;PMS_P1;PMS_P2;Temp;Humidity;BMP_temperature;BMP_pressure;BME280_temperature;BME280_humidity;BME280_pressure;Samples;Min_cycle;Max_cycle;Signal;HPM_P1;HPM_P2
2023/08/30 00:00:22;;;;;;;9.10;5.07;;;16.30;99.90;;;16.82;70.12;99863.03;5038087;28;20128;-81
2023/08/30 00:02:50;;;;;;;8.68;6.07;;;16.30;99.90;;;16.80;70.34;99863.31;5036349;28;20077;-81
2023/08/30 00:05:18;;;;;;;9.63;6.93;;;16.20;99.90;;;16.77;70.20;99858.44;5017079;28;20052;-82
2023/08/30 00:07:45;;;;;;;11.32;6.13;;;16.20;99.90;;;16.77;69.95;99873.81;5044634;28;20041;-82
2023/08/30 00:10:12;;;;;;;12.35;6.32;;;16.20;99.90;;;16.73;69.75;99866.25;5035667;28;20068;-81
2023/08/30 00:12:40;;;;;;;12.55;6.25;;;16.20;99.90;;;16.70;70.07;99864.06;5034961;28;20055;-82
2023/08/30 00:15:10;;;;;;;9.05;6.32;;;16.20;99.90;;;16.69;69.85;99858.97;5034819;28;20048;-81
2023/08/30 00:17:37;;;;;;;12.25;6.32;;;16.10;99.90;;;16.65;69.82;99861.38;5020828;28;20506;-81
2023/08/30 00:20:06;;;;;;;14.00;7.25;;;16.10;99.90;;;16.64;70.01;99861.63;5021330;28;20052;-82
2023/08/30 00:22:34;;;;;;;10.82;6.70;;;16.10;99.90;;;16.62;69.99;99856.50;5039369;28;20038;-82
2023/08/30 00:25:01;;;;;;;10.52;6.45;;;15.90;99.90;;;16.62;70.14;99855.69;5038836;28;20034;-82
2023/08/30 00:27:28;;;;;;;14.25;7.30;;;16.10;99.90;;;16.61;70.08;99859.47;5041109;28;20087;-81
2023/08/30 00:29:55;;;;;;;10.82;7.20;;;16.10;99.90;;;16.60;70.39;99863.25;5025179;28;20084;-82
2023/08/30 00:32:24;;;;;;;10.90;7.40;;;16.10;99.90;;;16.58;70.36;99858.09;5029371;28;20037;-82
2023/08/30 00:34:52;;;;;;;10.85;7.07;;;16.10;99.90;;;16.59;70.45;99861.59;5030605;28;20042;-81
2023/08/30 00:37:19;;;;;;;10.60;7.60;;;16.00;99.90;;;16.58;70.42;99865.38;5027149;28;20521;-82
2023/08/30 00:39:46;;;;;;;11.05;7.53;;;16.00;99.90;;;16.57;70.59;99858.38;5043085;28;20044;-82
2023/08/30 00:42:14;;;;;;;12.45;7.88;;;16.00;99.90;;;16.54;70.66;99845.44;5021345;28;20049;-80
2023/08/30 00:44:41;;;;;;;10.52;7.90;;;16.00;99.90;;;16.54;70.70;99848.94;5048328;28;20375;-81
2023/08/30 00:47:09;;;;;;;12.52;8.20;;;15.90;99.90;;;16.55;70.64;99849.78;5024710;28;20103;-81
2023/08/30 00:49:38;;;;;;;14.38;8.48;;;16.00;99.90;;;16.53;70.56;99852.72;5019514;28;20099;-81
2023/08/30 00:52:10;;;;;;;10.63;8.30;;;16.00;99.90;;;16.53;70.65;99852.72;5039398;28;20562;-81
2023/08/30 00:54:38;;;;;;;15.07;9.30;;;16.00;99.90;;;16.51;70.52;99846.81;5011586;28;20495;-81
2023/08/30 00:57:07;;;;;;;10.77;8.55;;;16.00;99.90;;;16.51;70.39;99848.69;5028341;28;20061;-81
2023/08/30 00:59:34;;;;;;;16.00;8.50;;;16.00;99.90;;;16.49;70.20;99851.63;5034721;28;20043;-81
2023/08/30 01:02:03;;;;;;;11.38;8.18;;;16.00;99.90;;;16.47;70.21;99846.50;5028209;28;20481;-81
2023/08/30 01:04:30;;;;;;;14.02;9.13;;;15.90;99.90;;;16.46;70.17;99852.97;5028355;28;20573;-81
2023/08/30 01:06:59;;;;;;;10.90;8.48;;;15.90;99.90;;;16.45;70.24;99845.19;5034996;28;20046;-81
2023/08/30 01:09:27;;;;;;;14.45;9.93;;;15.90;99.90;;;16.42;70.27;99851.06;5030303;28;20037;-81
2023/08/30 01:12:01;;;;;;;18.90;9.90;;;15.90;99.90;;;16.41;70.34;99839.50;5043245;28;20144;-82
2023/08/30 01:14:39;;;;;;;14.55;9.27;;;15.80;99.90;;;16.40;70.25;99837.91;5028076;28;20049;-82
2023/08/30 01:17:08;;;;;;;14.95;9.80;;;15.80;99.90;;;16.38;70.11;99828.44;5028623;28;20096;-81
2023/08/30 01:19:47;;;;;;;17.90;9.88;;;15.90;99.90;;;16.36;70.43;99820.66;5021433;28;20042;-81
2023/08/30 01:22:25;;;;;;;13.82;10.02;;;15.90;99.90;;;16.36;70.54;99825.22;5024117;28;20076;-80
2023/08/30 01:25:13;;;;;;;12.70;10.02;;;15.80;99.90;;;16.36;70.50;99814.47;5035719;28;20152;-81
2023/08/30 01:27:43;;;;;;;17.73;11.20;;;15.80;99.90;;;16.34;70.40;99819.28;5033975;28;20445;-81
2023/08/30 01:30:12;;;;;;;17.83;11.68;;;15.80;99.90;;;16.33;70.37;99814.97;5040241;28;20064;-81
2023/08/30 01:32:40;;;;;;;17.10;11.88;;;15.80;99.90;;;16.33;70.26;99814.97;5038338;28;20050;-81
2023/08/30 01:35:09;;;;;;;19.67;12.82;;;15.80;99.90;;;16.32;70.37;99808.78;5020523;28;20045;-82
2023/08/30 01:37:37;;;;;;;15.55;11.18;;;15.80;99.90;;;16.31;70.22;99812.56;5028658;28;20059;-82
2023/08/30 01:40:07;;;;;;;18.63;13.98;;;15.70;99.90;;;16.30;70.26;99816.34;5019078;28;20531;-82
2023/08/30 01:42:36;;;;;;;19.30;14.73;;;15.70;99.90;;;16.29;70.17;99812.00;5034633;28;20951;-81
2023/08/30 01:45:13;;;;;;;22.52;14.82;;;15.70;99.90;;;16.28;70.37;99812.28;5023870;28;20049;-82
2023/08/30 01:47:43;;;;;;;17.52;13.52;;;15.70;99.90;;;16.28;70.37;99814.97;5019736;28;20037;-81
2023/08/30 01:50:12;;;;;;;20.02;14.70;;;15.70;99.90;;;16.26;70.14;99809.06;5011611;28;20068;-81
2023/08/30 01:52:39;;;;;;;19.95;14.40;;;15.70;99.90;;;16.24;70.43;99806.59;5035356;28;20051;-82
2023/08/30 01:55:09;;;;;;;19.85;14.00;;;15.70;99.90;;;16.23;70.48;99813.88;5018553;28;20072;-81
2023/08/30 01:57:37;;;;;;;22.00;15.18;;;15.70;99.90;;;16.21;70.12;99804.47;5020875;28;20398;-81
2023/08/30 02:00:07;;;;;;;18.00;14.18;;;15.70;99.90;;;16.18;70.14;99803.09;5020957;28;20124;-81
2023/08/30 02:02:43;;;;;;;20.65;14.55;;;15.60;99.90;;;16.18;70.08;99810.38;5033370;28;20406;-82
2023/08/30 02:05:12;;;;;;;18.88;15.05;;;15.60;99.90;;;16.16;70.08;99809.84;5023624;28;20505;-81
2023/08/30 02:07:50;;;;;;;20.40;14.32;;;15.60;99.90;;;16.14;70.27;99814.66;5019050;28;20160;-81
2023/08/30 02:10:25;;;;;;;23.88;15.05;;;15.60;99.90;;;16.14;70.19;99820.03;5036126;28;20064;-81
2023/08/30 02:12:55;;;;;;;19.67;14.40;;;15.60;99.90;;;16.12;70.22;99822.19;5031841;28;20053;-82
2023/08/30 02:15:27;;;;;;;23.10;15.10;;;15.60;99.90;;;16.09;70.24;99828.09;5037254;28;20069;-81
2023/08/30 02:17:56;;;;;;;22.55;15.23;;;15.50;99.90;;;16.07;70.11;99822.19;5020516;28;20164;-82
2023/08/30 02:20:24;;;;;;;20.33;14.57;;;15.50;99.90;;;16.07;70.09;99816.78;5022888;28;20453;-81
2023/08/30 02:22:51;;;;;;;21.75;15.95;;;15.50;99.90;;;16.04;70.17;99820.00;5021209;28;20049;-82
2023/08/30 02:25:23;;;;;;;22.00;15.93;;;15.50;99.90;;;16.01;70.26;99823.22;5022414;28;20037;-81
2023/08/30 02:27:51;;;;;;;21.25;14.82;;;15.50;99.90;;;16.00;69.85;99818.91;5029301;28;20612;-82
2023/08/30 02:30:18;;;;;;;22.10;14.88;;;15.50;99.90;;;15.97;69.83;99814.88;5033074;28;20072;-81
2023/08/30 02:32:48;;;;;;;20.48;14.65;;;15.40;99.90;;;15.97;69.91;99825.63;5040572;28;20096;-81
2023/08/30 02:35:18;;;;;;;20.85;15.57;;;15.40;99.90;;;15.94;69.91;99829.63;5034038;28;20033;-81
2023/08/30 02:37:45;;;;;;;21.40;16.88;;;15.40;99.90;;;15.92;70.14;99831.00;4983196;28;20122;-81
2023/08/30 02:40:12;;;;;;;21.98;16.42;;;15.40;99.90;;;15.93;70.17;99832.59;5043024;28;20124;-81
2023/08/30 02:42:40;;;;;;;23.77;16.17;;;15.40;99.90;;;15.91;70.40;99822.13;5037066;28;20132;-81
2023/08/30 02:45:09;;;;;;;23.85;18.02;;;15.40;99.90;;;15.91;70.44;99816.75;5037291;28;20454;-81
2023/08/30 02:47:36;;;;;;;25.40;19.10;;;15.40;99.90;;;15.91;70.65;99811.34;5035414;28;20068;-81
2023/08/30 02:50:06;;;;;;;26.65;19.40;;;15.40;99.90;;;15.91;70.64;99811.34;5036442;28;20045;-81
2023/08/30 02:52:34;;;;;;;24.92;18.67;;;15.40;99.90;;;15.91;70.67;99803.28;5040524;28;20036;-81
2023/08/30 02:55:02;;;;;;;22.30;17.52;;;15.40;99.90;;;15.92;70.80;99798.72;5020176;28;20556;-82
2023/08/30 02:57:29;;;;;;;22.25;17.95;;;15.40;99.90;;;15.90;70.49;99790.88;5030012;28;20045;-81
2023/08/30 02:59:56;;;;;;;26.08;19.33;;;15.40;99.90;;;15.90;70.72;99795.47;5036337;28;20044;-81
2023/08/30 03:02:24;;;;;;;24.85;18.80;;;15.30;99.90;;;15.87;70.63;99783.38;5018769;28;20103;-81
2023/08/30 03:04:51;;;;;;;25.13;19.65;;;15.30;99.90;;;15.85;70.34;99790.88;5036012;28;20041;-82
2023/08/30 03:07:22;;;;;;;28.50;19.33;;;15.30;99.90;;;15.86;70.46;99789.00;5017694;28;20045;-82
2023/08/30 03:09:53;;;;;;;26.25;18.60;;;15.30;99.90;;;15.84;70.57;99789.25;5030789;28;20453;-82
2023/08/30 03:12:21;;;;;;;25.27;20.25;;;15.30;99.90;;;15.83;70.53;99787.66;5028346;28;20895;-81
2023/08/30 03:14:48;;;;;;;28.58;19.98;;;15.30;99.90;;;15.83;70.61;99779.56;5023909;28;20124;-81
2023/08/30 03:17:16;;;;;;;26.08;20.25;;;15.20;99.90;;;15.83;70.66;99789.53;5031211;28;20060;-81
2023/08/30 03:19:43;;;;;;;27.70;20.58;;;15.20;99.90;;;15.83;70.68;99789.53;5025265;28;20095;-82
2023/08/30 03:22:10;;;;;;;29.40;21.20;;;15.20;99.90;;;15.82;70.51;99787.91;5018269;28;20045;-81
2023/08/30 03:24:38;;;;;;;26.42;21.27;;;15.20;99.90;;;15.79;70.55;99791.13;5023436;28;20087;-81
2023/08/30 03:27:06;;;;;;;28.20;20.70;;;15.20;99.90;;;15.77;70.32;99777.94;5035869;28;20547;-81
2023/08/30 03:29:33;;;;;;;27.65;20.27;;;15.20;99.90;;;15.75;70.35;99779.28;5018020;28;20034;-82
2023/08/30 03:32:00;;;;;;;25.23;19.95;;;15.20;99.90;;;15.71;70.47;99778.97;5031941;28;20505;-81
2023/08/30 03:34:27;;;;;;;27.10;19.77;;;15.10;99.90;;;15.69;70.45;99773.88;5025109;28;20068;-80
2023/08/30 03:36:55;;;;;;;24.17;18.92;;;15.10;99.90;;;15.68;70.48;99771.44;5043146;28;20540;-80
2023/08/30 03:39:22;;;;;;;27.92;20.75;;;15.10;99.90;;;15.66;70.46;99774.41;5019268;28;20140;-81
2023/08/30 03:41:51;;;;;;;24.63;18.67;;;15.20;99.90;;;15.65;70.35;99769.28;5017691;28;20124;-81
2023/08/30 03:44:18;;;;;;;23.52;19.45;;;15.10;99.90;;;15.65;70.24;99766.59;5023078;28;20136;-81
2023/08/30 03:46:47;;;;;;;30.50;21.00;;;15.10;99.90;;;15.63;70.32;99769.53;5014827;28;20052;-81
2023/08/30 03:49:14;;;;;;;29.13;20.65;;;15.10;99.90;;;15.62;70.36;99767.91;5030036;28;20037;-81
2023/08/30 03:51:41;;;;;;;28.48;21.38;;;15.10;99.90;;;15.60;70.54;99771.91;5023501;28;20048;-81
2023/08/30 03:54:13;;;;;;;29.50;21.92;;;15.00;99.90;;;15.59;70.61;99775.66;5024445;28;20083;-81
2023/08/30 03:56:40;;;;;;;28.48;21.65;;;15.00;99.90;;;15.57;70.47;99770.56;5043315;28;20214;-81
2023/08/30 03:59:09;;;;;;;26.90;20.23;;;15.00;99.90;;;15.57;70.34;99775.13;5019013;28;20048;-81
2023/08/30 04:01:36;;;;;;;27.63;20.83;;;15.00;99.90;;;15.56;70.46;99763.53;5023656;28;20136;-82
2023/08/30 04:04:04;;;;;;;27.85;20.67;;;15.00;99.90;;;15.55;70.43;99769.19;5020058;28;20041;-81
2023/08/30 04:06:32;;;;;;;24.48;19.88;;;15.00;99.90;;;15.52;70.26;99759.78;5037915;28;20498;-80
2023/08/30 04:08:59;;;;;;;28.27;20.90;;;15.00;99.90;;;15.52;70.03;99764.34;5025321;28;20518;-81
2023/08/30 04:11:26;;;;;;;28.00;20.63;;;14.90;99.90;;;15.50;69.88;99761.09;5022849;28;20117;-81
2023/08/30 04:13:54;;;;;;;26.88;21.05;;;14.90;99.90;;;15.46;69.70;99753.56;5033199;28;20103;-81
2023/08/30 04:16:22;;;;;;;25.65;19.88;;;14.90;99.90;;;15.45;69.58;99751.94;5028697;28;20041;-81
2023/08/30 04:18:49;;;;;;;24.65;20.42;;;14.90;99.90;;;15.44;69.58;99757.59;5046712;28;20063;-82
2023/08/30 04:21:17;;;;;;;27.08;19.80;;;14.90;99.90;;;15.44;69.64;99755.72;5041686;28;20060;-82
2023/08/30 04:23:44;;;;;;;24.50;19.83;;;14.90;99.90;;;15.41;69.60;99753.53;5035614;28;20045;-82
2023/08/30 04:26:12;;;;;;;25.90;20.08;;;14.80;99.90;;;15.38;69.59;99751.38;5029963;28;20049;-82
2023/08/30 04:28:39;;;;;;;28.52;19.42;;;14.80;99.90;;;15.38;69.48;99746.00;5030289;28;20052;-82
2023/08/30 04:31:06;;;;;;;23.05;17.33;;;14.80;99.90;;;15.36;69.42;99747.31;5022905;28;20068;-81
2023/08/30 04:33:36;;;;;;;21.77;15.88;;;14.80;99.90;;;15.33;69.69;99742.50;5025786;28;20050;-82
2023/08/30 04:36:05;;;;;;;22.10;16.58;;;14.80;99.90;;;15.31;69.63;99741.91;5019083;28;20045;-81
2023/08/30 04:38:33;;;;;;;22.05;15.90;;;14.70;99.90;;;15.28;69.43;99735.22;5023625;28;20073;-82
2023/08/30 04:41:00;;;;;;;21.58;15.55;;;14.70;99.90;;;15.27;69.32;99741.63;5031348;28;20049;-82
2023/08/30 04:43:28;;;;;;;21.08;15.27;;;14.70;99.90;;;15.26;69.03;99736.53;5022020;28;20120;-81
2023/08/30 04:45:55;;;;;;;21.98;14.88;;;14.70;99.90;;;15.23;69.15;99739.75;5031622;28;20455;-81
2023/08/30 04:48:25;;;;;;;19.13;15.13;;;14.60;99.90;;;15.21;69.23;99742.66;5016821;28;20428;-81
2023/08/30 04:51:02;;;;;;;21.35;14.38;;;14.60;99.90;;;15.19;69.18;99737.56;5023052;28;20044;-81
2023/08/30 04:53:30;;;;;;;21.58;15.23;;;14.60;99.90;;;15.18;69.13;99735.16;5028446;28;20041;-81
2023/08/30 04:56:00;;;;;;;19.17;15.27;;;14.60;99.90;;;15.18;69.00;99732.47;5031562;28;20044;-81
2023/08/30 04:58:28;;;;;;;19.55;15.65;;;14.60;99.90;;;15.17;69.10;99718.19;5020803;28;20444;-81
2023/08/30 05:00:57;;;;;;;21.75;15.15;;;14.60;99.90;;;15.20;69.25;99723.06;5021709;28;20077;-81
2023/08/30 05:03:25;;;;;;;21.42;15.70;;;14.60;99.90;;;15.19;69.29;99716.09;5025690;28;20037;-81
2023/08/30 05:05:52;;;;;;;18.00;14.95;;;14.60;99.90;;;15.19;69.28;99709.91;5023045;28;20049;-81
2023/08/30 05:08:21;;;;;;;20.70;15.55;;;14.60;99.90;;;15.16;69.30;99713.91;5023015;28;20072;-81
2023/08/30 05:10:49;;;;;;;20.33;14.85;;;14.60;99.90;;;15.13;69.66;99710.94;5025996;28;20049;-81
2023/08/30 05:13:17;;;;;;;20.98;15.57;;;14.60;99.90;;;15.16;69.70;99713.91;5023290;28;20046;-81
2023/08/30 05:15:44;;;;;;;19.90;15.27;;;14.60;99.90;;;15.17;69.73;99715.50;5022327;28;20037;-81
2023/08/30 05:18:12;;;;;;;21.60;16.20;;;14.60;99.90;;;15.18;69.82;99710.97;5027529;28;20073;-81
2023/08/30 05:20:39;;;;;;;24.33;17.27;;;14.60;99.90;;;15.17;70.21;99702.09;5028837;28;20640;-81
2023/08/30 05:23:07;;;;;;;24.35;17.55;;;14.60;99.90;;;15.18;69.97;99695.66;5021523;28;20072;-83
2023/08/30 05:25:36;;;;;;;21.77;16.77;;;14.70;99.90;;;15.17;70.18;99691.34;5022858;28;20061;-83
2023/08/30 05:28:03;;;;;;;22.17;16.38;;;14.60;99.90;;;15.17;70.41;99693.22;5035066;28;20064;-82
2023/08/30 05:30:31;;;;;;;21.92;16.88;;;14.70;99.90;;;15.17;70.46;99679.78;5028546;28;20525;-82
2023/08/30 05:33:00;;;;;;;23.88;16.92;;;14.70;99.90;;;15.17;70.60;99683.28;5019299;28;20046;-82
2023/08/30 05:35:57;;;;;;;22.80;16.42;;;14.70;99.90;;;15.20;70.81;99679.28;5020202;28;20053;-82
2023/08/30 05:38:43;;;;;;;26.05;18.98;;;14.70;99.90;;;15.23;70.87;99686.81;5035564;28;20064;-83
2023/08/30 05:41:38;;;;;;;28.08;18.30;;;14.90;99.90;;;15.24;71.28;99680.38;5040677;28;20089;-83
2023/08/30 05:44:07;;;;;;;25.45;20.15;;;14.80;99.90;;;15.30;71.53;99679.31;5021884;28;20037;-83
2023/08/30 05:46:34;;;;;;;26.33;19.77;;;14.80;99.90;;;15.33;71.92;99672.63;5027743;28;20037;-83
2023/08/30 05:49:02;;;;;;;26.23;20.02;;;14.90;99.90;;;15.34;72.05;99667.00;5019139;28;20067;-82
2023/08/30 05:51:30;;;;;;;29.20;21.77;;;14.90;99.90;;;15.38;72.29;99670.78;5039073;28;20045;-82
2023/08/30 05:53:58;;;;;;;29.92;21.85;;;14.90;99.90;;;15.37;72.18;99658.41;5031622;28;20084;-82
2023/08/30 05:56:25;;;;;;;30.38;21.73;;;15.00;99.90;;;15.42;72.55;99660.28;5045850;28;20095;-83
2023/08/30 05:58:54;;;;;;;32.20;23.90;;;15.00;99.90;;;15.47;72.62;99665.72;5020664;28;20053;-82
2023/08/30 06:01:22;;;;;;;29.38;23.02;;;15.10;99.90;;;15.53;73.01;99655.78;5032506;28;20079;-82
2023/08/30 06:03:50;;;;;;;28.63;22.17;;;15.10;99.90;;;15.56;73.16;99661.41;5027423;28;20068;-83
2023/08/30 06:06:17;;;;;;;29.92;22.33;;;15.20;99.90;;;15.59;73.52;99658.22;5028471;28;20049;-83
2023/08/30 06:08:44;;;;;;;28.42;22.40;;;15.20;99.90;;;15.61;73.36;99655.25;5039622;28;20514;-82
2023/08/30 06:11:12;;;;;;;33.05;23.83;;;15.20;99.90;;;15.65;73.71;99653.69;5030563;28;20059;-83
2023/08/30 06:13:39;;;;;;;30.30;23.15;;;15.30;99.90;;;15.67;74.00;99654.25;5027162;28;20438;-83
2023/08/30 06:16:08;;;;;;;31.85;24.02;;;15.30;99.90;;;15.69;74.11;99652.91;5039844;28;20043;-83
2023/08/30 06:18:37;;;;;;;32.75;23.83;;;15.40;99.90;;;15.75;74.30;99655.59;5035386;28;20041;-82
2023/08/30 06:21:04;;;;;;;34.13;22.63;;;15.40;99.90;;;15.77;74.48;99640.81;5037494;28;20056;-83
2023/08/30 06:23:32;;;;;;;31.48;23.85;;;15.40;99.90;;;15.80;74.74;99642.97;5043562;28;20040;-82
2023/08/30 06:26:00;;;;;;;36.35;23.63;;;15.50;99.90;;;15.85;74.77;99645.66;5038098;28;20041;-83
2023/08/30 06:28:27;;;;;;;32.42;23.20;;;15.50;99.90;;;15.90;74.81;99651.03;5021542;28;20064;-83
2023/08/30 06:30:55;;;;;;;34.08;24.25;;;15.60;99.90;;;15.95;75.24;99648.38;5044081;28;20038;-83
2023/08/30 06:33:24;;;;;;;35.13;23.77;;;15.70;99.90;;;16.01;75.54;99646.50;5024680;28;20490;-83
2023/08/30 06:35:53;;;;;;;30.33;22.20;;;15.70;99.90;;;16.07;75.41;99647.31;5034044;28;20041;-83
2023/08/30 06:38:20;;;;;;;32.10;21.95;;;15.80;99.90;;;16.13;75.28;99641.66;5039064;28;20041;-83
2023/08/30 06:40:49;;;;;;;30.33;21.88;;;15.90;99.90;;;16.22;75.04;99642.75;5035444;28;20048;-83
2023/08/30 06:43:16;;;;;;;32.55;23.25;;;16.00;99.90;;;16.30;74.80;99637.91;5044197;28;20056;-84
2023/08/30 06:45:43;;;;;;;29.83;20.95;;;16.10;99.90;;;16.37;74.28;99633.88;5038054;28;20033;-83
2023/08/30 06:48:11;;;;;;;30.38;20.38;;;16.20;99.90;;;16.47;74.03;99636.56;5043418;28;20622;-83
2023/08/30 06:50:39;;;;;;;29.98;21.20;;;16.30;99.90;;;16.54;73.98;99638.16;5038601;28;20112;-83
2023/08/30 06:53:07;;;;;;;28.95;20.10;;;16.30;99.90;;;16.54;73.96;99633.56;5025262;28;20538;-83
2023/08/30 06:55:35;;;;;;;26.90;19.85;;;16.40;99.90;;;16.62;73.42;99641.13;5029171;28;20067;-83
2023/08/30 06:58:03;;;;;;;30.58;21.60;;;16.50;99.90;;;16.66;73.49;99639.50;5046555;28;20049;-83
2023/08/30 07:00:30;;;;;;;30.33;19.48;;;16.60;99.90;;;16.72;72.92;99626.88;5039872;28;20040;-83
2023/08/30 07:02:58;;;;;;;29.13;18.30;;;16.60;99.90;;;16.79;72.58;99627.41;5041575;28;20107;-83
2023/08/30 07:05:25;;;;;;;29.02;20.33;;;16.70;99.90;;;16.82;72.98;99621.44;5035097;28;20042;-83
2023/08/30 07:07:53;;;;;;;26.55;19.25;;;16.70;99.90;;;16.82;72.25;99618.75;5052598;28;20068;-83
2023/08/30 07:10:21;;;;;;;29.98;18.85;;;16.80;99.90;;;16.86;72.24;99616.34;5020974;28;20042;-83
2023/08/30 07:12:49;;;;;;;27.52;19.45;;;16.80;99.90;;;16.93;71.98;99625.75;5037602;28;20124;-83
2023/08/30 07:15:17;;;;;;;25.48;19.25;;;16.90;99.90;;;16.93;71.91;99619.53;5028286;28;20041;-83
2023/08/30 07:17:44;;;;;;;26.38;18.85;;;16.90;99.90;;;17.01;72.02;99620.88;5038501;28;20041;-82
2023/08/30 07:20:12;;;;;;;28.83;19.25;;;17.00;99.90;;;17.02;71.38;99619.78;5041072;28;20080;-83
2023/08/30 07:22:40;;;;;;;25.58;18.27;;;17.00;99.90;;;17.08;71.85;99616.81;5040788;28;20395;-83
2023/08/30 07:25:10;;;;;;;24.23;17.85;;;17.10;99.90;;;17.16;72.25;99616.22;5046867;28;20069;-83
2023/08/30 07:27:38;;;;;;;25.25;18.80;;;17.20;99.90;;;17.21;72.38;99610.81;5025262;28;20047;-83
2023/08/30 07:30:07;;;;;;;25.55;18.15;;;17.30;99.90;;;17.20;70.71;99611.91;5046331;28;20473;-83
2023/08/30 07:32:35;;;;;;;25.85;18.33;;;17.30;99.90;;;17.23;70.90;99613.25;5045102;28;20041;-84
2023/08/30 07:35:03;;;;;;;27.00;16.55;;;17.30;99.90;;;17.24;70.65;99614.84;5040756;28;20116;-83
2023/08/30 07:37:30;;;;;;;21.70;15.98;;;17.30;99.90;;;17.31;70.16;99601.88;5046608;28;20037;-84
2023/08/30 07:39:57;;;;;;;22.50;15.85;;;17.40;99.90;;;17.37;70.43;99605.34;5046421;28;20546;-83
2023/08/30 07:42:26;;;;;;;25.45;15.77;;;17.50;99.90;;;17.45;69.93;99610.16;5028577;28;20052;-83
2023/08/30 07:44:53;;;;;;;20.35;15.10;;;17.50;99.90;;;17.47;69.72;99603.44;5044764;28;20048;-83
2023/08/30 07:47:21;;;;;;;23.70;14.88;;;17.60;99.90;;;17.50;68.35;99600.16;5046221;28;20045;-84
2023/08/30 07:49:48;;;;;;;18.52;14.20;;;17.60;99.90;;;17.56;69.51;99595.53;5043343;28;20060;-83
2023/08/30 07:52:16;;;;;;;22.48;14.05;;;17.70;99.90;;;17.64;69.08;99597.66;5035617;28;20041;-83
2023/08/30 07:54:43;;;;;;;20.50;13.85;;;17.80;99.90;;;17.67;68.27;99599.00;5041865;28;20041;-83
2023/08/30 07:57:10;;;;;;;19.13;13.18;;;17.80;99.90;;;17.75;69.31;99599.22;5039902;28;20073;-83
2023/08/30 07:59:39;;;;;;;17.73;12.80;;;17.90;99.90;;;17.84;68.26;99595.94;5038642;28;20044;-83
2023/08/30 08:02:07;;;;;;;20.35;12.32;;;18.00;99.90;;;17.86;67.84;99593.75;5039701;28;20068;-83
2023/08/30 08:04:35;;;;;;;15.40;10.93;;;18.00;99.90;;;17.91;66.12;99599.13;5046690;28;20041;-83
2023/08/30 08:07:03;;;;;;;16.35;10.45;;;18.10;99.90;;;17.93;66.51;99592.38;5038720;28;20067;-84
2023/08/30 08:09:30;;;;;;;14.45;8.82;;;18.10;99.90;;;17.95;64.67;99595.59;5017564;28;20402;-82
2023/08/30 08:11:57;;;;;;;13.40;8.77;;;18.10;99.90;;;17.99;63.96;99593.94;5020796;28;21215;-84
2023/08/30 08:14:25;;;;;;;13.65;8.57;;;18.20;99.90;;;18.04;64.52;99600.38;5044767;28;20049;-84
2023/08/30 08:16:53;;;;;;;12.90;8.00;;;18.20;99.90;;;18.06;63.21;99598.22;5043262;28;20464;-84
2023/08/30 08:19:21;;;;;;;14.00;7.47;;;18.30;99.90;;;18.08;64.21;99590.66;5036475;28;20045;-84
2023/08/30 08:21:49;;;;;;;13.65;7.90;;;18.30;99.90;;;18.12;62.92;99586.31;5042260;28;20459;-84
2023/08/30 08:24:16;;;;;;;11.50;7.35;;;18.30;99.90;;;18.17;64.22;99589.75;5038872;28;20136;-84
2023/08/30 08:26:44;;;;;;;10.05;7.05;;;18.40;99.90;;;18.21;65.57;99590.00;5019748;28;20041;-84
2023/08/30 08:29:11;;;;;;;12.55;7.43;;;18.40;99.90;;;18.23;64.36;99582.41;5042355;28;20103;-84
2023/08/30 08:31:38;;;;;;;14.38;7.85;;;18.50;99.90;;;18.20;62.69;99582.97;5037764;28;20029;-83
2023/08/30 08:34:12;;;;;;;14.57;8.07;;;18.50;99.90;;;18.20;63.14;99591.06;5033964;28;20077;-83
2023/08/30 08:36:41;;;;;;;11.27;7.68;;;18.50;99.90;;;18.21;63.22;99587.31;5040285;28;20866;-83
2023/08/30 08:39:09;;;;;;;10.38;7.10;;;18.50;99.90;;;18.20;62.56;99589.19;5043609;28;20067;-83
2023/08/30 08:41:42;;;;;;;11.68;7.68;;;18.40;99.90;;;18.21;62.97;99592.69;5039422;28;20045;-82
2023/08/30 08:44:10;;;;;;;9.85;7.13;;;18.40;99.90;;;18.13;63.19;99582.50;5044592;28;20151;-82
2023/08/30 08:46:40;;;;;;;9.05;6.28;;;18.30;99.90;;;18.08;63.79;99588.75;5053745;28;20041;-82
2023/08/30 08:49:14;;;;;;;10.50;6.45;;;18.30;99.90;;;18.10;65.56;99583.06;5034480;28;20041;-81
2023/08/30 08:51:43;;;;;;;12.00;6.78;;;18.30;99.90;;;18.08;63.55;99580.66;5046351;28;20713;-81
2023/08/30 08:54:12;;;;;;;10.30;6.90;;;18.30;99.90;;;18.09;63.61;99582.25;5043901;28;20048;-81
2023/08/30 08:56:40;;;;;;;10.98;6.43;;;18.30;99.90;;;18.13;65.40;99582.50;5036066;28;20049;-82
2023/08/30 08:59:08;;;;;;;13.80;6.75;;;18.30;99.90;;;18.16;64.37;99576.56;5042622;28;20041;-82
2023/08/30 09:01:39;;;;;;;9.68;6.30;;;18.30;99.90;;;18.20;63.98;99581.09;5045532;28;20088;-82
2023/08/30 09:04:08;;;;;;;10.63;6.57;;;18.40;99.90;;;18.23;64.32;99575.13;5045646;28;20040;-82
2023/08/30 09:06:37;;;;;;;10.45;6.07;;;18.40;99.90;;;18.24;64.70;99576.72;5048291;28;20045;-82
2023/08/30 09:09:06;;;;;;;8.75;5.68;;;18.50;99.90;;;18.21;63.97;99579.22;5028704;28;20045;-82
2023/08/30 09:11:33;;;;;;;10.60;6.25;;;18.40;99.90;;;18.23;64.08;99588.63;5052234;28;20422;-81
2023/08/30 09:14:01;;;;;;;10.48;5.93;;;18.50;99.90;;;18.26;63.89;99574.56;5044003;28;20052;-82
2023/08/30 09:16:28;;;;;;;9.02;5.43;;;18.50;99.90;;;18.33;64.76;99584.22;5046427;28;20056;-82
2023/08/30 09:19:00;;;;;;;10.00;5.93;;;18.50;99.90;;;18.35;63.97;99574.75;5042877;28;20059;-81
2023/08/30 09:21:27;;;;;;;11.80;6.75;;;18.60;99.90;;;18.37;63.11;99583.38;5034489;28;20045;-81
2023/08/30 09:24:04;;;;;;;11.35;6.47;;;18.60;99.90;;;18.40;64.96;99582.81;5044457;28;20069;-81
2023/08/30 09:26:33;;;;;;;13.35;6.50;;;18.70;99.90;;;18.36;63.28;99575.56;5050739;28;20469;-81
2023/08/30 09:29:03;;;;;;;12.00;5.90;;;18.60;99.90;;;18.34;64.74;99577.72;5042135;28;20045;-81
2023/08/30 09:31:36;;;;;;;9.63;5.63;;;18.50;99.90;;;18.26;63.92;99571.88;5039258;28;20502;-81
2023/08/30 09:34:03;;;;;;;10.57;5.70;;;18.40;99.90;;;18.18;64.29;99564.38;5045517;28;20243;-81
2023/08/30 09:36:38;;;;;;;10.93;5.55;;;18.30;99.90;;;18.13;65.24;99572.50;5046700;28;20052;-81
2023/08/30 09:39:10;;;;;;;11.05;5.25;;;18.20;99.90;;;18.09;65.09;99568.75;5026121;28;20050;-81
2023/08/30 09:41:37;;;;;;;9.65;5.72;;;18.20;99.90;;;18.03;64.28;99569.91;5040002;28;20049;-81
2023/08/30 09:44:10;;;;;;;11.88;6.03;;;18.10;99.90;;;18.02;65.27;99571.81;5041834;28;20403;-81
2023/08/30 09:46:48;;;;;;;11.20;5.20;;;18.10;99.90;;;17.97;65.61;99562.94;5043509;28;20105;-81
2023/08/30 09:49:15;;;;;;;8.57;4.97;;;18.00;99.90;;;17.99;66.30;99572.34;5049148;28;20379;-81
2023/08/30 09:51:43;;;;;;;14.88;5.45;;;18.00;99.90;;;17.97;66.13;99571.84;5041483;28;20041;-80
2023/08/30 09:54:17;;;;;;;7.85;5.28;;;18.10;99.90;;;17.91;67.36;99575.66;5036353;28;20049;-82
2023/08/30 09:56:45;;;;;;;11.23;5.05;;;17.90;99.90;;;17.77;67.03;99577.41;5021601;28;20069;-81
2023/08/30 09:59:14;;;;;;;9.13;5.05;;;17.90;99.90;;;17.68;68.52;99576.34;5041283;28;20103;-81
2023/08/30 10:01:43;;;;;;;9.95;4.95;;;17.80;99.90;;;17.78;69.82;99576.31;5041580;28;20052;-81
2023/08/30 10:04:11;;;;;;;9.55;4.50;;;17.80;99.90;;;17.78;70.46;99570.09;5037425;28;20033;-81
2023/08/30 10:06:39;;;;;;;9.98;4.97;;;17.70;99.90;;;17.71;70.34;99568.50;5039872;28;20117;-81
2023/08/30 10:09:09;;;;;;;9.50;5.13;;;17.70;99.90;;;17.76;71.89;99559.56;5040509;28;20110;-81
2023/08/30 10:11:39;;;;;;;9.30;5.10;;;17.70;99.90;;;17.71;72.58;99557.72;5037984;28;20777;-83
2023/08/30 10:14:08;;;;;;;7.97;4.63;;;17.60;99.90;;;17.72;73.17;99563.91;5047287;28;20033;-81